Dearborn Heights, Michigan
Current Conditions -  °F | °C
As of 10:53 PM on Sunday 23 Nov 2014 (Local Time) from KDTW Reporting Station
Moderate Rain Moderate Rain  
Wind Chill: 51°   Ceiling: 700
Heat Index: 51°   Visibility: 5mi
Dew Point: 49°   Wind: 12mph
Humidity: 92%   Direction: 110°ESE
Pressure: 29.3"   Gusts: 20mph
Location:  42.33°N, 83.28°W
Report Text: KDTW 240353Z 11010G17KT 5SM RA BR BKN007 OVC011 11/09 A2930 RMK AO2 PRESFR SLP924 P0012 T01060094 $
Loading
Personal Weather Stations






























Interactive Weather Map New forecast layout! Learn more

10-Day Weather Forecast

Advertisements
Track Severe Weather on mobile